sensor_id;sensor_type;location;lat;lon;timestamp;pressure;altitude;pressure_sealevel;temperature;humidity
56894;BME280;43392;50.078;13.704;2024-02-21T00:00:06;97701.81;;;7.39;73.03
56894;BME280;43392;50.078;13.704;2024-02-21T00:02:33;97693.81;;;7.39;73.13
56894;BME280;43392;50.078;13.704;2024-02-21T00:04:59;97690.34;;;7.39;72.96
56894;BME280;43392;50.078;13.704;2024-02-21T00:07:26;97690.56;;;7.37;73.04
56894;BME280;43392;50.078;13.704;2024-02-21T00:09:54;97683.63;;;7.36;72.87
56894;BME280;43392;50.078;13.704;2024-02-21T00:12:20;97682.00;;;7.35;73.12
56894;BME280;43392;50.078;13.704;2024-02-21T00:14:47;97686.28;;;7.36;73.24
56894;BME280;43392;50.078;13.704;2024-02-21T00:17:13;97674.25;;;7.33;73.27
56894;BME280;43392;50.078;13.704;2024-02-21T00:19:40;97677.69;;;7.34;73.06
56894;BME280;43392;50.078;13.704;2024-02-21T00:22:07;97680.34;;;7.34;73.02
56894;BME280;43392;50.078;13.704;2024-02-21T00:24:34;97686.28;;;7.36;72.92
56894;BME280;43392;50.078;13.704;2024-02-21T00:27:02;97666.69;;;7.30;72.73
56894;BME280;43392;50.078;13.704;2024-02-21T00:29:28;97672.59;;;7.32;73.09
56894;BME280;43392;50.078;13.704;2024-02-21T00:31:55;97671.22;;;7.30;73.22
56894;BME280;43392;50.078;13.704;2024-02-21T00:34:22;97668.09;;;7.33;73.28
56894;BME280;43392;50.078;13.704;2024-02-21T00:36:48;97665.16;;;7.34;73.23
56894;BME280;43392;50.078;13.704;2024-02-21T00:39:15;97666.00;;;7.35;73.24
56894;BME280;43392;50.078;13.704;2024-02-21T00:41:42;97659.25;;;7.32;73.02
56894;BME280;43392;50.078;13.704;2024-02-21T00:44:10;97661.22;;;7.37;72.90
56894;BME280;43392;50.078;13.704;2024-02-21T00:46:36;97654.28;;;7.36;73.00
56894;BME280;43392;50.078;13.704;2024-02-21T00:49:04;97648.13;;;7.35;72.96
56894;BME280;43392;50.078;13.704;2024-02-21T00:51:30;97653.00;;;7.39;73.07
56894;BME280;43392;50.078;13.704;2024-02-21T00:53:57;97651.38;;;7.38;73.03
56894;BME280;43392;50.078;13.704;2024-02-21T00:56:23;97653.78;;;7.39;72.93
56894;BME280;43392;50.078;13.704;2024-02-21T00:58:50;97652.19;;;7.38;73.00
56894;BME280;43392;50.078;13.704;2024-02-21T01:01:22;97642.31;;;7.39;73.36
56894;BME280;43392;50.078;13.704;2024-02-21T01:03:49;97641.50;;;7.38;73.18
56894;BME280;43392;50.078;13.704;2024-02-21T01:06:16;97632.94;;;7.36;73.42
56894;BME280;43392;50.078;13.704;2024-02-21T01:08:43;97626.22;;;7.33;73.69
56894;BME280;43392;50.078;13.704;2024-02-21T01:11:09;97629.91;;;7.32;73.79
56894;BME280;43392;50.078;13.704;2024-02-21T01:13:36;97621.34;;;7.30;74.12
56894;BME280;43392;50.078;13.704;2024-02-21T01:16:03;97609.88;;;7.30;74.29
56894;BME280;43392;50.078;13.704;2024-02-21T01:18:31;97623.19;;;7.30;74.28
56894;BME280;43392;50.078;13.704;2024-02-21T01:20:57;97616.25;;;7.29;74.63
56894;BME280;43392;50.078;13.704;2024-02-21T01:23:24;97617.31;;;7.28;74.39
56894;BME280;43392;50.078;13.704;2024-02-21T01:25:51;97615.44;;;7.28;74.64
56894;BME280;43392;50.078;13.704;2024-02-21T01:28:17;97611.16;;;7.27;74.67
56894;BME280;43392;50.078;13.704;2024-02-21T01:30:44;97605.00;;;7.27;74.65
56894;BME280;43392;50.078;13.704;2024-02-21T01:33:11;97602.84;;;7.24;74.85
56894;BME280;43392;50.078;13.704;2024-02-21T01:35:39;97597.50;;;7.24;74.88
56894;BME280;43392;50.078;13.704;2024-02-21T01:38:05;97598.53;;;7.23;74.89
56894;BME280;43392;50.078;13.704;2024-02-21T01:40:32;97597.97;;;7.21;75.18
56894;BME280;43392;50.078;13.704;2024-02-21T01:42:58;97600.84;;;7.19;75.39
56894;BME280;43392;50.078;13.704;2024-02-21T01:45:25;97594.94;;;7.17;75.29
56894;BME280;43392;50.078;13.704;2024-02-21T01:47:52;97594.16;;;7.17;75.42
56894;BME280;43392;50.078;13.704;2024-02-21T01:50:18;97589.88;;;7.16;75.52
56894;BME280;43392;50.078;13.704;2024-02-21T01:52:48;97583.72;;;7.15;75.20
56894;BME280;43392;50.078;13.704;2024-02-21T01:55:16;97578.63;;;7.14;75.44
56894;BME280;43392;50.078;13.704;2024-02-21T01:57:42;97573.75;;;7.11;75.57
56894;BME280;43392;50.078;13.704;2024-02-21T02:00:13;97572.13;;;7.10;75.65
56894;BME280;43392;50.078;13.704;2024-02-21T02:02:41;97570.53;;;7.09;75.79
56894;BME280;43392;50.078;13.704;2024-02-21T02:05:09;97575.06;;;7.08;75.49
56894;BME280;43392;50.078;13.704;2024-02-21T02:07:36;97566.22;;;7.08;75.93
56894;BME280;43392;50.078;13.704;2024-02-21T02:10:05;97559.88;;;7.09;75.76
56894;BME280;43392;50.078;13.704;2024-02-21T02:12:32;97553.97;;;7.07;75.98
56894;BME280;43392;50.078;13.704;2024-02-21T02:14:59;97564.38;;;7.08;75.78
56894;BME280;43392;50.078;13.704;2024-02-21T02:17:25;97554.75;;;7.07;75.99
56894;BME280;43392;50.078;13.704;2024-02-21T02:19:52;97558.22;;;7.08;76.15
56894;BME280;43392;50.078;13.704;2024-02-21T02:22:22;97543.28;;;7.07;76.09
56894;BME280;43392;50.078;13.704;2024-02-21T02:24:51;97543.78;;;7.04;76.26
56894;BME280;43392;50.078;13.704;2024-02-21T02:27:17;97536.25;;;7.01;76.31
56894;BME280;43392;50.078;13.704;2024-02-21T02:29:44;97537.06;;;7.01;76.47
56894;BME280;43392;50.078;13.704;2024-02-21T02:32:10;97538.91;;;7.01;76.66
56894;BME280;43392;50.078;13.704;2024-02-21T02:34:37;97535.41;;;7.00;76.59
56894;BME280;43392;50.078;13.704;2024-02-21T02:37:04;97526.03;;;6.98;76.75
56894;BME280;43392;50.078;13.704;2024-02-21T02:39:30;97527.91;;;6.97;76.86
56894;BME280;43392;50.078;13.704;2024-02-21T02:41:58;97526.03;;;6.98;76.82
56894;BME280;43392;50.078;13.704;2024-02-21T02:44:25;97525.47;;;6.96;76.97
56894;BME280;43392;50.078;13.704;2024-02-21T02:46:51;97529.22;;;6.95;77.04
56894;BME280;43392;50.078;13.704;2024-02-21T02:49:18;97519.31;;;6.95;77.10
56894;BME280;43392;50.078;13.704;2024-02-21T02:51:44;97514.25;;;6.94;77.22
56894;BME280;43392;50.078;13.704;2024-02-21T02:54:11;97512.03;;;6.91;77.23
56894;BME280;43392;50.078;13.704;2024-02-21T02:56:38;97508.00;;;6.88;77.30
56894;BME280;43392;50.078;13.704;2024-02-21T02:59:06;97509.06;;;6.87;77.35
56894;BME280;43392;50.078;13.704;2024-02-21T03:01:33;97509.88;;;6.88;77.38
56894;BME280;43392;50.078;13.704;2024-02-21T03:04:00;97514.63;;;6.86;77.64
56894;BME280;43392;50.078;13.704;2024-02-21T03:06:27;97510.34;;;6.85;77.67
56894;BME280;43392;50.078;13.704;2024-02-21T03:08:53;97506.88;;;6.84;77.80
56894;BME280;43392;50.078;13.704;2024-02-21T03:11:20;97504.91;;;6.80;77.49
56894;BME280;43392;50.078;13.704;2024-02-21T03:13:54;97499.13;;;6.83;77.67
56894;BME280;43392;50.078;13.704;2024-02-21T03:16:22;97497.75;;;6.80;77.64
56894;BME280;43392;50.078;13.704;2024-02-21T03:18:48;97497.50;;;6.82;77.70
56894;BME280;43392;50.078;13.704;2024-02-21T03:21:15;97497.25;;;6.83;77.80
56894;BME280;43392;50.078;13.704;2024-02-21T03:23:41;97495.38;;;6.84;77.97
56894;BME280;43392;50.078;13.704;2024-02-21T03:26:08;97491.69;;;6.85;77.72
56894;BME280;43392;50.078;13.704;2024-02-21T03:28:34;97503.94;;;6.86;77.76
56894;BME280;43392;50.078;13.704;2024-02-21T03:31:01;97499.22;;;6.88;77.80
56894;BME280;43392;50.078;13.704;2024-02-21T03:33:29;97495.16;;;6.85;77.60
56894;BME280;43392;50.078;13.704;2024-02-21T03:35:56;97488.56;;;6.88;77.63
56894;BME280;43392;50.078;13.704;2024-02-21T03:38:22;97493.88;;;6.88;77.88
56894;BME280;43392;50.078;13.704;2024-02-21T03:40:49;97495.50;;;6.89;77.83
56894;BME280;43392;50.078;13.704;2024-02-21T03:43:15;97492.81;;;6.89;77.69
56894;BME280;43392;50.078;13.704;2024-02-21T03:45:42;97499.22;;;6.88;77.86
56894;BME280;43392;50.078;13.704;2024-02-21T03:48:08;97482.63;;;6.86;77.87
56894;BME280;43392;50.078;13.704;2024-02-21T03:50:36;97489.84;;;6.85;77.70
56894;BME280;43392;50.078;13.704;2024-02-21T03:53:03;97491.13;;;6.83;78.14
56894;BME280;43392;50.078;13.704;2024-02-21T03:55:30;97485.19;;;6.81;78.10
56894;BME280;43392;50.078;13.704;2024-02-21T03:57:56;97481.97;;;6.79;78.10
56894;BME280;43392;50.078;13.704;2024-02-21T04:00:23;97472.84;;;6.75;78.20
56894;BME280;43392;50.078;13.704;2024-02-21T04:02:50;97478.63;;;6.72;78.08
56894;BME280;43392;50.078;13.704;2024-02-21T04:05:16;97478.63;;;6.72;78.38
56894;BME280;43392;50.078;13.704;2024-02-21T04:07:44;97478.31;;;6.68;78.44
56894;BME280;43392;50.078;13.704;2024-02-21T04:10:11;97493.25;;;6.69;78.38
56894;BME280;43392;50.078;13.704;2024-02-21T04:12:38;97483.09;;;6.66;78.63
56894;BME280;43392;50.078;13.704;2024-02-21T04:15:05;97492.94;;;6.65;78.49
56894;BME280;43392;50.078;13.704;2024-02-21T04:17:32;97489.19;;;6.66;78.50
56894;BME280;43392;50.078;13.704;2024-02-21T04:20:02;97485.97;;;6.64;78.45
56894;BME280;43392;50.078;13.704;2024-02-21T04:22:30;97483.56;;;6.63;78.46
56894;BME280;43392;50.078;13.704;2024-02-21T04:24:59;97489.69;;;6.63;78.85
56894;BME280;43392;50.078;13.704;2024-02-21T04:27:25;97482.72;;;6.62;78.73
56894;BME280;43392;50.078;13.704;2024-02-21T04:29:53;97479.03;;;6.63;78.72
56894;BME280;43392;50.078;13.704;2024-02-21T04:32:19;97475.09;;;6.66;78.74
56894;BME280;43392;50.078;13.704;2024-02-21T04:34:46;97473.00;;;6.68;78.92
56894;BME280;43392;50.078;13.704;2024-02-21T04:37:13;97471.72;;;6.71;78.91
56894;BME280;43392;50.078;13.704;2024-02-21T04:39:39;97467.75;;;6.73;78.69
56894;BME280;43392;50.078;13.704;2024-02-21T04:42:07;97470.44;;;6.73;78.65
56894;BME280;43392;50.078;13.704;2024-02-21T04:44:34;97464.59;;;6.76;78.67
56894;BME280;43392;50.078;13.704;2024-02-21T04:47:01;97465.41;;;6.77;78.72
56894;BME280;43392;50.078;13.704;2024-02-21T04:49:28;97460.91;;;6.77;78.72
56894;BME280;43392;50.078;13.704;2024-02-21T04:51:55;97463.56;;;6.77;78.56
56894;BME280;43392;50.078;13.704;2024-02-21T04:54:22;97463.00;;;6.75;78.76
56894;BME280;43392;50.078;13.704;2024-02-21T04:56:48;97464.03;;;6.74;78.88
56894;BME280;43392;50.078;13.704;2024-02-21T04:59:16;97460.31;;;6.75;78.91
56894;BME280;43392;50.078;13.704;2024-02-21T05:01:43;97453.38;;;6.74;79.09
56894;BME280;43392;50.078;13.704;2024-02-21T05:04:10;97458.47;;;6.76;79.03
56894;BME280;43392;50.078;13.704;2024-02-21T05:06:37;97457.88;;;6.74;79.34
56894;BME280;43392;50.078;13.704;2024-02-21T05:09:04;97448.28;;;6.73;78.88
56894;BME280;43392;50.078;13.704;2024-02-21T05:11:31;97454.09;;;6.69;79.11
56894;BME280;43392;50.078;13.704;2024-02-21T05:13:57;97445.78;;;6.66;79.34
56894;BME280;43392;50.078;13.704;2024-02-21T05:16:25;97450.84;;;6.67;79.48
56894;BME280;43392;50.078;13.704;2024-02-21T05:18:52;97450.59;;;6.69;79.26
56894;BME280;43392;50.078;13.704;2024-02-21T05:21:18;97446.09;;;6.69;79.10
56894;BME280;43392;50.078;13.704;2024-02-21T05:23:45;97450.03;;;6.67;79.07
56894;BME280;43392;50.078;13.704;2024-02-21T05:26:20;97449.22;;;6.66;78.83
56894;BME280;43392;50.078;13.704;2024-02-21T05:28:46;97450.84;;;6.67;78.89
56894;BME280;43392;50.078;13.704;2024-02-21T05:31:13;97446.34;;;6.68;79.02
56894;BME280;43392;50.078;13.704;2024-02-21T05:33:42;97451.88;;;6.66;79.01
56894;BME280;43392;50.078;13.704;2024-02-21T05:36:09;97454.47;;;6.61;79.13
56894;BME280;43392;50.078;13.704;2024-02-21T05:38:35;97448.34;;;6.61;79.09
56894;BME280;43392;50.078;13.704;2024-02-21T05:41:02;97451.00;;;6.61;79.13
56894;BME280;43392;50.078;13.704;2024-02-21T05:43:28;97447.75;;;6.59;79.41
56894;BME280;43392;50.078;13.704;2024-02-21T05:45:55;97454.47;;;6.61;79.21
56894;BME280;43392;50.078;13.704;2024-02-21T05:48:22;97441.03;;;6.56;79.49
56894;BME280;43392;50.078;13.704;2024-02-21T05:50:50;97435.25;;;6.59;79.43
56894;BME280;43392;50.078;13.704;2024-02-21T05:53:17;97441.13;;;6.61;79.64
56894;BME280;43392;50.078;13.704;2024-02-21T05:55:43;97432.91;;;6.63;79.46
56894;BME280;43392;50.078;13.704;2024-02-21T05:58:10;97430.81;;;6.65;79.33
56894;BME280;43392;50.078;13.704;2024-02-21T06:00:38;97430.56;;;6.66;79.48
56894;BME280;43392;50.078;13.704;2024-02-21T06:03:05;97426.88;;;6.67;79.70
56894;BME280;43392;50.078;13.704;2024-02-21T06:05:36;97432.78;;;6.69;79.64
56894;BME280;43392;50.078;13.704;2024-02-21T06:08:05;97429.06;;;6.71;79.36
56894;BME280;43392;50.078;13.704;2024-02-21T06:10:32;97432.28;;;6.73;79.82
56894;BME280;43392;50.078;13.704;2024-02-21T06:12:59;97423.22;;;6.74;79.46
56894;BME280;43392;50.078;13.704;2024-02-21T06:15:25;97419.53;;;6.75;79.73
56894;BME280;43392;50.078;13.704;2024-02-21T06:17:52;97411.06;;;6.78;79.73
56894;BME280;43392;50.078;13.704;2024-02-21T06:20:18;97412.56;;;6.74;79.51
56894;BME280;43392;50.078;13.704;2024-02-21T06:22:45;97413.56;;;6.67;79.57
56894;BME280;43392;50.078;13.704;2024-02-21T06:25:13;97403.69;;;6.68;79.42
56894;BME280;43392;50.078;13.704;2024-02-21T06:27:39;97400.78;;;6.69;79.48
56894;BME280;43392;50.078;13.704;2024-02-21T06:30:07;97399.50;;;6.72;79.45
56894;BME280;43392;50.078;13.704;2024-02-21T06:32:34;97398.69;;;6.72;79.63
56894;BME280;43392;50.078;13.704;2024-02-21T06:35:01;97399.84;;;6.76;79.87
56894;BME280;43392;50.078;13.704;2024-02-21T06:37:28;97402.97;;;6.73;79.61
56894;BME280;43392;50.078;13.704;2024-02-21T06:39:55;97401.13;;;6.73;79.60
56894;BME280;43392;50.078;13.704;2024-02-21T06:42:24;97402.25;;;6.77;79.58
56894;BME280;43392;50.078;13.704;2024-02-21T06:44:51;97397.75;;;6.78;79.53
56894;BME280;43392;50.078;13.704;2024-02-21T06:47:17;97396.13;;;6.77;79.98
56894;BME280;43392;50.078;13.704;2024-02-21T06:49:48;97391.25;;;6.74;79.63
56894;BME280;43392;50.078;13.704;2024-02-21T06:52:17;97400.63;;;6.76;79.96
56894;BME280;43392;50.078;13.704;2024-02-21T06:54:45;97399.84;;;6.76;79.67
56894;BME280;43392;50.078;13.704;2024-02-21T06:57:12;97404.00;;;6.72;79.97
56894;BME280;43392;50.078;13.704;2024-02-21T06:59:40;97405.66;;;6.73;79.70
56894;BME280;43392;50.078;13.704;2024-02-21T07:02:06;97393.34;;;6.72;79.81
56894;BME280;43392;50.078;13.704;2024-02-21T07:04:33;97404.34;;;6.75;79.71
56894;BME280;43392;50.078;13.704;2024-02-21T07:07:00;97391.84;;;6.76;79.70
56894;BME280;43392;50.078;13.704;2024-02-21T07:09:27;97376.63;;;6.76;79.98
56894;BME280;43392;50.078;13.704;2024-02-21T07:11:54;97376.63;;;6.76;79.81
56894;BME280;43392;50.078;13.704;2024-02-21T07:14:21;97383.13;;;6.80;79.87
56894;BME280;43392;50.078;13.704;2024-02-21T07:16:49;97384.16;;;6.79;80.10
56894;BME280;43392;50.078;13.704;2024-02-21T07:19:16;97398.31;;;6.80;79.90
56894;BME280;43392;50.078;13.704;2024-02-21T07:21:42;97397.75;;;6.78;80.15
56894;BME280;43392;50.078;13.704;2024-02-21T07:24:09;97402.09;;;6.84;79.90
56894;BME280;43392;50.078;13.704;2024-02-21T07:26:35;97397.59;;;6.84;80.32
56894;BME280;43392;50.078;13.704;2024-02-21T07:29:01;97392.81;;;6.86;80.18
56894;BME280;43392;50.078;13.704;2024-02-21T07:31:28;97389.66;;;6.89;80.07
56894;BME280;43392;50.078;13.704;2024-02-21T07:33:56;97388.38;;;6.92;79.93
56894;BME280;43392;50.078;13.704;2024-02-21T07:36:28;97394.53;;;6.92;80.16
56894;BME280;43392;50.078;13.704;2024-02-21T07:38:55;97403.91;;;6.95;80.27
56894;BME280;43392;50.078;13.704;2024-02-21T07:41:21;97404.00;;;7.00;80.06
56894;BME280;43392;50.078;13.704;2024-02-21T07:43:48;97402.78;;;7.24;80.74
56894;BME280;43392;50.078;13.704;2024-02-21T07:46:15;97402.59;;;7.30;79.49
56894;BME280;43392;50.078;13.704;2024-02-21T07:48:42;97401.78;;;7.30;79.42
56894;BME280;43392;50.078;13.704;2024-02-21T07:51:09;97386.28;;;7.27;79.08
56894;BME280;43392;50.078;13.704;2024-02-21T07:53:36;97376.66;;;7.26;79.15
56894;BME280;43392;50.078;13.704;2024-02-21T07:56:03;97387.34;;;7.26;79.14
56894;BME280;43392;50.078;13.704;2024-02-21T07:58:30;97385.97;;;7.23;79.18
56894;BME280;43392;50.078;13.704;2024-02-21T08:00:56;97380.72;;;7.28;79.16
56894;BME280;43392;50.078;13.704;2024-02-21T08:03:23;97382.63;;;7.33;78.77
56894;BME280;43392;50.078;13.704;2024-02-21T08:05:51;97378.19;;;7.39;78.67
56894;BME280;43392;50.078;13.704;2024-02-21T08:08:19;97379.31;;;7.43;78.71
56894;BME280;43392;50.078;13.704;2024-02-21T08:10:47;97366.34;;;7.51;78.47
56894;BME280;43392;50.078;13.704;2024-02-21T08:13:14;97364.91;;;7.60;78.25
56894;BME280;43392;50.078;13.704;2024-02-21T08:15:41;97363.41;;;7.69;78.12
56894;BME280;43392;50.078;13.704;2024-02-21T08:18:07;97349.69;;;7.82;77.74
56894;BME280;43392;50.078;13.704;2024-02-21T08:20:34;97348.28;;;7.96;77.52
56894;BME280;43392;50.078;13.704;2024-02-21T08:23:00;97342.53;;;8.10;77.13
56894;BME280;43392;50.078;13.704;2024-02-21T08:25:29;97343.47;;;8.20;76.59
56894;BME280;43392;50.078;13.704;2024-02-21T08:27:58;97340.78;;;8.20;76.58
56894;BME280;43392;50.078;13.704;2024-02-21T08:30:24;97346.03;;;8.32;76.17
56894;BME280;43392;50.078;13.704;2024-02-21T08:32:51;97343.41;;;8.37;76.11
56894;BME280;43392;50.078;13.704;2024-02-21T08:35:19;97349.25;;;8.34;76.23
56894;BME280;43392;50.078;13.704;2024-02-21T08:37:47;97348.44;;;8.33;75.92
56894;BME280;43392;50.078;13.704;2024-02-21T08:40:14;97357.19;;;8.29;76.29
56894;BME280;43392;50.078;13.704;2024-02-21T08:42:44;97373.72;;;8.26;75.92
56894;BME280;43392;50.078;13.704;2024-02-21T08:45:10;97371.22;;;8.19;76.23
56894;BME280;43392;50.078;13.704;2024-02-21T08:47:39;97367.72;;;8.14;76.20
56894;BME280;43392;50.078;13.704;2024-02-21T08:50:06;97367.66;;;8.09;76.70
56894;BME280;43392;50.078;13.704;2024-02-21T08:52:34;97368.13;;;8.06;76.59
56894;BME280;43392;50.078;13.704;2024-02-21T08:55:01;97359.81;;;8.02;76.76
56894;BME280;43392;50.078;13.704;2024-02-21T08:57:28;97357.13;;;8.02;76.44
56894;BME280;43392;50.078;13.704;2024-02-21T08:59:56;97356.91;;;8.03;76.58
56894;BME280;43392;50.078;13.704;2024-02-21T09:02:22;97355.81;;;8.04;76.44
56894;BME280;43392;50.078;13.704;2024-02-21T09:04:49;97351.31;;;8.05;76.42
56894;BME280;43392;50.078;13.704;2024-02-21T09:07:15;97332.66;;;8.10;76.63
56894;BME280;43392;50.078;13.704;2024-02-21T09:09:42;97321.53;;;8.18;76.28
56894;BME280;43392;50.078;13.704;2024-02-21T09:12:08;97321.91;;;8.27;75.86
56894;BME280;43392;50.078;13.704;2024-02-21T09:14:37;97322.53;;;8.34;75.65
56894;BME280;43392;50.078;13.704;2024-02-21T09:17:05;97309.28;;;8.44;75.64
56894;BME280;43392;50.078;13.704;2024-02-21T09:19:32;97305.06;;;8.53;75.56
56894;BME280;43392;50.078;13.704;2024-02-21T09:21:59;97293.13;;;8.60;75.26
56894;BME280;43392;50.078;13.704;2024-02-21T09:24:25;97300.94;;;8.67;74.89
56894;BME280;43392;50.078;13.704;2024-02-21T09:26:52;97299.91;;;8.73;74.58
56894;BME280;43392;50.078;13.704;2024-02-21T09:29:18;97305.84;;;8.80;74.65
56894;BME280;43392;50.078;13.704;2024-02-21T09:31:45;97299.72;;;8.85;74.32
56894;BME280;43392;50.078;13.704;2024-02-21T09:34:14;97306.69;;;8.86;74.24
56894;BME280;43392;50.078;13.704;2024-02-21T09:36:41;97302.16;;;8.86;73.86
56894;BME280;43392;50.078;13.704;2024-02-21T09:39:07;97305.13;;;8.90;73.87
56894;BME280;43392;50.078;13.704;2024-02-21T09:41:38;97310.78;;;8.93;73.53
56894;BME280;43392;50.078;13.704;2024-02-21T09:44:09;97304.34;;;8.94;73.06
56894;BME280;43392;50.078;13.704;2024-02-21T09:46:44;97313.72;;;8.97;73.19
56894;BME280;43392;50.078;13.704;2024-02-21T09:49:23;97315.91;;;9.00;72.55
56894;BME280;43392;50.078;13.704;2024-02-21T09:51:53;97323.91;;;9.00;72.74
56894;BME280;43392;50.078;13.704;2024-02-21T09:54:21;97324.72;;;9.00;72.47
56894;BME280;43392;50.078;13.704;2024-02-21T09:56:48;97325.00;;;9.04;72.38
56894;BME280;43392;50.078;13.704;2024-02-21T09:59:15;97322.34;;;9.04;72.07
56894;BME280;43392;50.078;13.704;2024-02-21T10:01:42;97320.50;;;9.09;71.87
56894;BME280;43392;50.078;13.704;2024-02-21T10:04:09;97322.91;;;9.11;71.39
56894;BME280;43392;50.078;13.704;2024-02-21T10:06:37;97325.34;;;9.12;71.22
56894;BME280;43392;50.078;13.704;2024-02-21T10:09:05;97317.34;;;9.12;71.08
56894;BME280;43392;50.078;13.704;2024-02-21T10:11:32;97322.41;;;9.14;70.81
56894;BME280;43392;50.078;13.704;2024-02-21T10:14:03;97310.34;;;9.11;70.84
56894;BME280;43392;50.078;13.704;2024-02-21T10:16:31;97316.56;;;9.17;70.78
56894;BME280;43392;50.078;13.704;2024-02-21T10:18:58;97306.44;;;9.24;70.54
56894;BME280;43392;50.078;13.704;2024-02-21T10:21:25;97305.13;;;9.26;70.28
56894;BME280;43392;50.078;13.704;2024-02-21T10:23:53;97299.88;;;9.47;69.69
56894;BME280;43392;50.078;13.704;2024-02-21T10:26:20;97291.69;;;9.68;69.46
56894;BME280;43392;50.078;13.704;2024-02-21T10:28:47;97281.78;;;9.64;69.36
56894;BME280;43392;50.078;13.704;2024-02-21T10:31:24;97270.50;;;9.62;69.53
56894;BME280;43392;50.078;13.704;2024-02-21T10:33:55;97263.25;;;9.57;69.49
56894;BME280;43392;50.078;13.704;2024-02-21T10:36:23;97252.03;;;9.60;69.60
56894;BME280;43392;50.078;13.704;2024-02-21T10:38:50;97249.16;;;9.82;68.93
56894;BME280;43392;50.078;13.704;2024-02-21T10:41:20;97251.91;;;10.02;68.52
56894;BME280;43392;50.078;13.704;2024-02-21T10:43:52;97268.81;;;10.13;68.13
56894;BME280;43392;50.078;13.704;2024-02-21T10:46:20;97264.25;;;10.13;68.24
56894;BME280;43392;50.078;13.704;2024-02-21T10:48:48;97260.19;;;10.06;68.07
56894;BME280;43392;50.078;13.704;2024-02-21T10:51:19;97271.16;;;9.99;68.14
56894;BME280;43392;50.078;13.704;2024-02-21T10:53:54;97258.84;;;9.98;68.21
56894;BME280;43392;50.078;13.704;2024-02-21T10:56:29;97252.41;;;9.99;68.22
56894;BME280;43392;50.078;13.704;2024-02-21T10:58:57;97244.91;;;10.01;68.42
56894;BME280;43392;50.078;13.704;2024-02-21T11:01:24;97231.53;;;10.01;67.97
56894;BME280;43392;50.078;13.704;2024-02-21T11:03:53;97219.22;;;10.00;67.81
56894;BME280;43392;50.078;13.704;2024-02-21T11:06:21;97222.41;;;9.97;67.74
56894;BME280;43392;50.078;13.704;2024-02-21T11:08:59;97230.44;;;9.92;67.19
56894;BME280;43392;50.078;13.704;2024-02-21T11:11:27;97225.66;;;10.04;67.09
56894;BME280;43392;50.078;13.704;2024-02-21T11:14:03;97226.75;;;10.13;66.98
56894;BME280;43392;50.078;13.704;2024-02-21T11:16:35;97216.31;;;10.17;67.14
56894;BME280;43392;50.078;13.704;2024-02-21T11:19:07;97217.91;;;10.18;67.13
56894;BME280;43392;50.078;13.704;2024-02-21T11:21:34;97198.91;;;10.19;66.89
56894;BME280;43392;50.078;13.704;2024-02-21T11:24:01;97196.47;;;10.18;66.71
56894;BME280;43392;50.078;13.704;2024-02-21T11:26:30;97198.63;;;10.26;66.65
56894;BME280;43392;50.078;13.704;2024-02-21T11:28:57;97193.00;;;10.52;65.90
56894;BME280;43392;50.078;13.704;2024-02-21T11:31:25;97186.56;;;10.63;65.74
56894;BME280;43392;50.078;13.704;2024-02-21T11:33:52;97188.69;;;10.66;65.89
56894;BME280;43392;50.078;13.704;2024-02-21T11:36:26;97195.41;;;10.74;65.89
56894;BME280;43392;50.078;13.704;2024-02-21T11:38:53;97194.06;;;10.77;66.05
56894;BME280;43392;50.078;13.704;2024-02-21T11:41:20;97191.38;;;10.77;65.88
56894;BME280;43392;50.078;13.704;2024-02-21T11:43:48;97184.38;;;10.76;65.51
56894;BME280;43392;50.078;13.704;2024-02-21T11:46:15;97184.38;;;10.76;65.17
56894;BME280;43392;50.078;13.704;2024-02-21T11:48:42;97184.97;;;10.73;65.16
56894;BME280;43392;50.078;13.704;2024-02-21T11:51:09;97179.59;;;10.73;65.21
56894;BME280;43392;50.078;13.704;2024-02-21T11:53:36;97173.94;;;10.69;64.66
56894;BME280;43392;50.078;13.704;2024-02-21T11:56:03;97175.81;;;10.63;64.68
56894;BME280;43392;50.078;13.704;2024-02-21T11:58:30;97175.03;;;10.63;64.78
56894;BME280;43392;50.078;13.704;2024-02-21T12:00:58;97171.81;;;10.66;64.62
56894;BME280;43392;50.078;13.704;2024-02-21T12:03:24;97157.88;;;10.64;64.65
56894;BME280;43392;50.078;13.704;2024-02-21T12:05:53;97151.69;;;10.63;64.60
56894;BME280;43392;50.078;13.704;2024-02-21T12:08:21;97145.28;;;10.59;64.72
56894;BME280;43392;50.078;13.704;2024-02-21T12:10:48;97138.56;;;10.62;65.20
56894;BME280;43392;50.078;13.704;2024-02-21T12:13:16;97135.31;;;10.80;64.91
56894;BME280;43392;50.078;13.704;2024-02-21T12:15:47;97128.00;;;10.96;64.30
56894;BME280;43392;50.078;13.704;2024-02-21T12:18:15;97124.75;;;11.14;64.37
56894;BME280;43392;50.078;13.704;2024-02-21T12:20:42;97126.56;;;11.28;64.01
56894;BME280;43392;50.078;13.704;2024-02-21T12:23:10;97129.19;;;11.39;63.89
56894;BME280;43392;50.078;13.704;2024-02-21T12:25:36;97118.38;;;11.49;64.13
56894;BME280;43392;50.078;13.704;2024-02-21T12:28:05;97117.28;;;11.60;64.16
56894;BME280;43392;50.078;13.704;2024-02-21T12:30:32;97103.81;;;11.70;64.07
56894;BME280;43392;50.078;13.704;2024-02-21T12:33:00;97103.19;;;11.78;63.63
56894;BME280;43392;50.078;13.704;2024-02-21T12:35:28;97102.09;;;11.84;62.94
56894;BME280;43392;50.078;13.704;2024-02-21T12:37:56;97105.31;;;11.86;63.12
56894;BME280;43392;50.078;13.704;2024-02-21T12:40:25;97091.84;;;11.91;63.13
56894;BME280;43392;50.078;13.704;2024-02-21T12:42:57;97089.66;;;11.93;62.83
56894;BME280;43392;50.078;13.704;2024-02-21T12:45:24;97090.69;;;11.97;62.81
56894;BME280;43392;50.078;13.704;2024-02-21T12:47:51;97094.56;;;11.86;62.83
56894;BME280;43392;50.078;13.704;2024-02-21T12:50:18;97086.22;;;11.87;62.21
56894;BME280;43392;50.078;13.704;2024-02-21T12:52:49;97077.66;;;11.80;61.50
56894;BME280;43392;50.078;13.704;2024-02-21T12:55:15;97080.91;;;11.77;61.99
56894;BME280;43392;50.078;13.704;2024-02-21T12:57:42;97068.06;;;11.74;61.73